Terminal Aerodrome Forecast
Issued by NWS

Current Version | Previous Version | Text Only | Print | Product List | Glossary Off
Versions: 1 2 3 4 5 6 7 8 9 10 11 12 13 14 15 16 17 18 19

268
FTUS41 KILN 080539
TAFLUK
TAF
KLUK 080539Z 0806/0906 29006KT P6SM BKN090
     FM081200 28010G16KT P6SM SCT028 SCT100
     FM081800 28012G20KT P6SM BKN040
     FM090300 28010G18KT P6SM OVC028=

USA.gov is the U.S. government's official web portal to all federal, state and local government web resources and services.